DNAA/ABV METAR and TAF weather

Enter ICAO airport designator
Station Type Date Time Source
DNAA METAR 2024/05/28 23:00 UTC NOAA

DNAA 282300Z 16003KT 9999 TS SCT007 FEW019CB 23/21 Q1014 NOSIG


Station Type Date Time Source
DNAA Decoded METAR 2024/05/28 23:00 UTC NOAA

Station name not available
May 28, 2024 - 07:00 PM EDT / 2024.05.28 2300 UTC
Wind: from the SSE (160 degrees) at 3 MPH (3 KT):0
Visibility: greater than 7 mile(s):0
Sky conditions: partly cloudy
Weather: thunder; Cumulonimbus clouds observed
Temperature: 73 F (23 C)
Dew Point: 69 F (21 C)
Relative Humidity: 88%
Pressure (altimeter): 29.94 in. Hg (1014 hPa)
ob: DNAA 282300Z 16003KT 9999 TS SCT007 FEW019CB 23/21 Q1014 NOSIG
cycle: 23

Station Type Date Time Source
DNAA TAF 2024/05/28 18:51 UTC NOAA